createdAt,value
2018-08-25T00:02:04.161Z,1.10
2018-08-25T00:04:32.847Z,1.00
2018-08-25T00:07:02.151Z,1.10
2018-08-25T00:09:30.749Z,1.20
2018-08-25T00:11:59.482Z,1.30
2018-08-25T00:14:28.317Z,1.50
2018-08-25T00:16:57.080Z,1.40
2018-08-25T00:19:25.812Z,1.50
2018-08-25T00:21:54.937Z,1.60
2018-08-25T00:24:23.619Z,2.00
2018-08-25T00:26:52.278Z,1.90
2018-08-25T00:29:21.370Z,2.33
2018-08-25T00:31:51.770Z,1.27
2018-08-25T00:34:21.320Z,1.60
2018-08-25T00:36:50.212Z,1.90
2018-08-25T00:39:18.844Z,1.50
2018-08-25T00:41:47.483Z,1.70
2018-08-25T00:44:16.482Z,1.70
2018-08-25T00:46:45.140Z,1.70
2018-08-25T00:49:14.492Z,1.77
2018-08-25T00:51:43.128Z,1.60
2018-08-25T00:54:11.804Z,1.40
2018-08-25T00:56:40.443Z,1.23
2018-08-25T00:59:09.058Z,1.77
2018-08-25T01:01:37.746Z,1.43
2018-08-25T01:04:06.518Z,2.13
2018-08-25T01:06:35.195Z,1.90
2018-08-25T01:09:04.870Z,1.70
2018-08-25T01:11:33.497Z,2.10
2018-08-25T01:14:02.159Z,2.10
2018-08-25T01:16:30.773Z,2.00
2018-08-25T01:18:59.462Z,2.93
2018-08-25T01:21:28.206Z,2.57
2018-08-25T01:23:57.296Z,2.07
2018-08-25T01:26:25.960Z,2.97
2018-08-25T01:28:54.777Z,2.50
2018-08-25T01:31:25.969Z,2.70
2018-08-25T01:33:55.874Z,2.67
2018-08-25T01:36:24.621Z,1.97
2018-08-25T01:38:53.272Z,2.30
2018-08-25T01:41:22.001Z,3.50
2018-08-25T01:43:50.980Z,2.63
2018-08-25T01:46:19.741Z,3.37
2018-08-25T01:48:48.364Z,2.60
2018-08-25T01:51:17.221Z,2.50
2018-08-25T01:53:46.039Z,3.00
2018-08-25T01:56:15.310Z,3.47
2018-08-25T01:58:44.172Z,3.03
2018-08-25T02:01:12.852Z,2.93
2018-08-25T02:03:41.592Z,3.97
2018-08-25T02:06:10.266Z,3.33
2018-08-25T02:08:39.621Z,4.67
2018-08-25T02:11:08.278Z,5.90
2018-08-25T02:13:36.972Z,5.43
2018-08-25T02:16:06.155Z,4.87
2018-08-25T02:18:34.883Z,5.83
2018-08-25T02:21:03.511Z,6.27
2018-08-25T02:23:32.178Z,4.60
2018-08-25T02:26:00.836Z,6.33
2018-08-25T02:28:30.195Z,7.03
2018-08-25T02:30:58.912Z,6.50
2018-08-25T02:33:27.682Z,6.07
2018-08-25T02:35:57.141Z,4.13
2018-08-25T02:38:25.855Z,4.00
2018-08-25T02:40:54.507Z,4.20
2018-08-25T02:43:23.214Z,3.90
2018-08-25T02:45:51.829Z,4.40
2018-08-25T02:48:20.515Z,3.97
2018-08-25T02:50:50.244Z,4.83
2018-08-25T02:53:19.027Z,4.07
2018-08-25T02:55:47.786Z,3.93
2018-08-25T02:58:16.460Z,3.80
2018-08-25T03:00:45.146Z,3.03
2018-08-25T03:03:13.775Z,3.60
2018-08-25T03:05:42.428Z,3.80
2018-08-25T03:08:11.096Z,4.80
2018-08-25T03:10:39.827Z,3.73
2018-08-25T03:13:08.522Z,5.43
2018-08-25T03:15:37.148Z,7.60
2018-08-25T03:18:05.780Z,5.17
2018-08-25T03:20:34.461Z,3.30
2018-08-25T03:23:03.160Z,3.00
2018-08-25T03:25:32.370Z,3.63
2018-08-25T03:28:01.118Z,3.73
2018-08-25T03:30:29.840Z,3.83
2018-08-25T03:32:58.448Z,2.00
2018-08-25T03:35:27.094Z,2.33
2018-08-25T03:37:55.781Z,1.77
2018-08-25T03:40:24.469Z,1.67
2018-08-25T03:42:53.179Z,1.53
2018-08-25T03:45:21.811Z,1.23
2018-08-25T03:47:50.429Z,1.37
2018-08-25T03:50:19.079Z,1.03
2018-08-25T03:52:47.763Z,1.90
2018-08-25T03:55:16.405Z,1.30
2018-08-25T03:57:45.939Z,1.17
2018-08-25T04:00:14.472Z,1.20
2018-08-25T04:02:43.071Z,0.97
2018-08-25T04:05:11.597Z,1.40
2018-08-25T04:07:40.788Z,1.20
2018-08-25T04:10:09.212Z,1.20
2018-08-25T04:12:38.043Z,1.20
2018-08-25T04:15:07.040Z,1.50
2018-08-25T04:17:35.565Z,1.07
2018-08-25T04:20:04.173Z,1.20
2018-08-25T04:22:32.651Z,1.37
2018-08-25T04:25:01.192Z,1.77
2018-08-25T04:27:29.859Z,1.73
2018-08-25T04:29:58.841Z,1.60
2018-08-25T04:32:27.318Z,1.10
2018-08-25T04:34:55.791Z,1.43
2018-08-25T04:37:24.320Z,1.20
2018-08-25T04:39:52.882Z,1.43
2018-08-25T04:42:21.352Z,1.47
2018-08-25T04:44:49.794Z,1.67
2018-08-25T04:47:18.312Z,1.87
2018-08-25T04:49:46.846Z,2.07
2018-08-25T04:52:16.058Z,1.70
2018-08-25T04:54:45.228Z,2.00
2018-08-25T04:57:13.690Z,1.90
2018-08-25T04:59:42.337Z,2.20
2018-08-25T05:02:10.809Z,1.93
2018-08-25T05:04:39.317Z,2.20
2018-08-25T05:07:07.831Z,2.00
2018-08-25T05:09:36.347Z,2.00
2018-08-25T05:12:04.946Z,1.97
2018-08-25T05:14:33.481Z,1.97
2018-08-25T05:17:03.181Z,1.70
2018-08-25T05:19:31.699Z,1.93
2018-08-25T05:22:00.459Z,1.90
2018-08-25T05:24:28.952Z,1.90
2018-08-25T05:26:57.686Z,2.30
2018-08-25T05:29:26.273Z,2.10
2018-08-25T05:31:54.853Z,2.27
2018-08-25T05:34:23.737Z,2.10
2018-08-25T05:36:52.321Z,2.37
2018-08-25T05:39:20.806Z,2.40
2018-08-25T05:41:49.332Z,2.20
2018-08-25T05:44:18.864Z,2.60
2018-08-25T05:46:47.249Z,2.20
2018-08-25T05:49:15.814Z,2.60
2018-08-25T05:51:44.341Z,2.50
2018-08-25T05:54:12.896Z,2.70
2018-08-25T05:56:41.386Z,2.07
2018-08-25T05:59:09.837Z,2.67
2018-08-25T06:01:38.385Z,1.90
2018-08-25T06:04:07.140Z,2.57
2018-08-25T06:06:35.753Z,2.10
2018-08-25T06:09:07.953Z,2.67
2018-08-25T06:11:36.542Z,2.60
2018-08-25T06:14:05.122Z,2.07
2018-08-25T06:16:33.606Z,2.70
2018-08-25T06:19:02.209Z,2.33
2018-08-25T06:21:30.737Z,2.30
2018-08-25T06:23:59.733Z,2.60
2018-08-25T06:26:28.247Z,2.23
2018-08-25T06:28:56.819Z,2.63
2018-08-25T06:31:25.340Z,2.10
2018-08-25T06:33:53.884Z,2.50
2018-08-25T06:36:22.951Z,2.00
2018-08-25T06:38:51.517Z,1.87
2018-08-25T06:41:20.086Z,2.30
2018-08-25T06:43:48.680Z,1.90
2018-08-25T06:46:17.523Z,2.10
2018-08-25T06:48:46.112Z,1.53
2018-08-25T06:51:14.593Z,1.70
2018-08-25T06:53:43.186Z,2.10
2018-08-25T06:56:11.660Z,2.10
2018-08-25T06:58:40.482Z,2.30
2018-08-25T07:01:09.030Z,1.77
2018-08-25T07:03:38.585Z,1.60
2018-08-25T07:06:07.291Z,1.80
2018-08-25T07:08:43.369Z,2.07
2018-08-25T07:11:12.697Z,1.70
2018-08-25T07:13:41.279Z,2.00
2018-08-25T07:16:10.707Z,1.80
2018-08-25T07:18:39.126Z,1.70
2018-08-25T07:21:07.966Z,1.53
2018-08-25T07:23:36.510Z,1.97
2018-08-25T07:26:05.113Z,2.00
2018-08-25T07:28:33.492Z,1.77
2018-08-25T07:31:02.577Z,1.40
2018-08-25T07:33:31.753Z,1.57
2018-08-25T07:36:00.766Z,1.40
2018-08-25T07:38:30.070Z,1.63
2018-08-25T07:40:58.980Z,2.03
2018-08-25T07:43:27.600Z,1.80
2018-08-25T07:45:56.214Z,1.80
2018-08-25T07:48:24.819Z,1.90
2018-08-25T07:50:53.859Z,1.40
2018-08-25T07:53:22.568Z,1.53
2018-08-25T07:55:51.314Z,1.70
2018-08-25T07:58:20.268Z,1.50
2018-08-25T08:00:49.047Z,1.30
2018-08-25T08:03:17.600Z,1.47
2018-08-25T08:05:46.727Z,1.70
2018-08-25T08:08:16.008Z,1.40
2018-08-25T08:10:45.416Z,2.20
2018-08-25T08:13:14.074Z,1.77
2018-08-25T08:15:42.697Z,1.40
2018-08-25T08:18:11.273Z,1.67
2018-08-25T08:20:39.932Z,1.30
2018-08-25T08:23:08.752Z,0.93
2018-08-25T08:25:37.281Z,2.70
2018-08-25T08:28:12.113Z,2.07
2018-08-25T08:30:41.165Z,1.47
2018-08-25T08:33:12.910Z,1.50
2018-08-25T08:35:41.576Z,1.70
2018-08-25T08:38:10.982Z,1.73
2018-08-25T08:40:39.733Z,1.77
2018-08-25T08:43:08.398Z,1.57
2018-08-25T08:45:37.004Z,2.00
2018-08-25T08:48:05.674Z,1.70
2018-08-25T08:50:37.939Z,1.77
2018-08-25T08:53:06.708Z,1.57
2018-08-25T08:55:35.337Z,1.10
2018-08-25T08:58:04.049Z,1.20
2018-08-25T09:00:32.601Z,1.03
2018-08-25T09:03:05.676Z,1.73
2018-08-25T09:05:34.160Z,1.33
2018-08-25T09:08:02.634Z,1.47
2018-08-25T09:10:31.216Z,1.40
2018-08-25T09:13:00.600Z,1.80
2018-08-25T09:15:29.176Z,1.23
2018-08-25T09:17:57.728Z,0.90
2018-08-25T09:20:26.292Z,1.40
2018-08-25T09:22:54.868Z,1.23
2018-08-25T09:25:23.425Z,1.17
2018-08-25T09:27:52.836Z,1.13
2018-08-25T09:30:21.365Z,1.10
2018-08-25T09:32:50.023Z,1.20
2018-08-25T09:35:19.697Z,1.30
2018-08-25T09:37:48.445Z,1.33
2018-08-25T09:40:17.181Z,1.13
2018-08-25T09:42:45.713Z,1.20
2018-08-25T09:45:14.676Z,1.00
2018-08-25T09:47:43.284Z,0.90
2018-08-25T09:50:11.800Z,0.87
2018-08-25T09:52:40.895Z,0.70
2018-08-25T09:55:09.437Z,1.30
2018-08-25T09:57:37.975Z,1.00
2018-08-25T10:00:06.531Z,1.30
2018-08-25T10:02:35.152Z,1.60
2018-08-25T10:05:03.747Z,1.37
2018-08-25T10:07:32.303Z,1.37
2018-08-25T10:10:01.129Z,1.50
2018-08-25T10:12:29.807Z,1.27
2018-08-25T10:14:58.536Z,1.37
2018-08-25T10:17:28.153Z,1.40
2018-08-25T10:19:56.840Z,1.33
2018-08-25T10:22:26.045Z,1.40
2018-08-25T10:24:54.618Z,0.90
2018-08-25T10:27:23.254Z,1.40
2018-08-25T10:29:52.108Z,1.43
2018-08-25T10:32:20.863Z,1.10
2018-08-25T10:34:49.565Z,1.77
2018-08-25T10:37:18.433Z,1.57
2018-08-25T10:39:47.971Z,1.27
2018-08-25T10:42:17.110Z,1.60
2018-08-25T10:44:45.746Z,1.30
2018-08-25T10:47:14.942Z,1.10
2018-08-25T10:49:43.559Z,1.23
2018-08-25T10:52:12.128Z,1.03
2018-08-25T10:54:40.709Z,1.13
2018-08-25T10:57:09.265Z,0.90
2018-08-25T10:59:38.814Z,1.10
2018-08-25T11:02:07.464Z,1.10
2018-08-25T11:04:37.620Z,1.10
2018-08-25T11:07:06.269Z,0.90
2018-08-25T11:09:34.896Z,1.10
2018-08-25T11:12:04.232Z,1.03
2018-08-25T11:14:32.852Z,1.00
2018-08-25T11:17:01.567Z,0.90
2018-08-25T11:19:30.282Z,1.40
2018-08-25T11:21:58.807Z,1.30
2018-08-25T11:24:27.397Z,0.93
2018-08-25T11:26:55.924Z,1.33
2018-08-25T11:29:24.598Z,1.17
2018-08-25T11:31:53.099Z,1.10
2018-08-25T11:34:21.758Z,0.90
2018-08-25T11:36:50.393Z,1.00
2018-08-25T11:39:18.887Z,1.10
2018-08-25T11:41:47.452Z,1.20
2018-08-25T11:44:16.103Z,1.43
2018-08-25T11:46:44.752Z,1.33
2018-08-25T11:49:13.777Z,1.13
2018-08-25T11:51:42.324Z,1.20
2018-08-25T11:54:11.033Z,1.27
2018-08-25T11:56:39.490Z,1.00
2018-08-25T11:59:08.174Z,1.20
2018-08-25T12:01:36.945Z,1.13
2018-08-25T12:04:05.655Z,0.90
2018-08-25T12:06:34.444Z,1.43
2018-08-25T12:09:03.350Z,1.27
2018-08-25T12:11:31.885Z,1.30
2018-08-25T12:14:00.506Z,1.17
2018-08-25T12:16:29.226Z,1.47
2018-08-25T12:18:57.712Z,1.37
2018-08-25T12:21:26.539Z,1.60
2018-08-25T12:23:55.171Z,1.47
2018-08-25T12:26:23.783Z,1.30
2018-08-25T12:28:52.594Z,1.50
2018-08-25T12:31:21.225Z,1.00
2018-08-25T12:33:50.361Z,1.53
2018-08-25T12:36:19.037Z,1.40
2018-08-25T12:38:47.688Z,1.50
2018-08-25T12:41:16.580Z,1.30
2018-08-25T12:43:45.257Z,0.83
2018-08-25T12:46:14.068Z,0.93
2018-08-25T12:48:42.751Z,0.70
2018-08-25T12:51:11.616Z,1.00
2018-08-25T12:53:41.252Z,0.90
2018-08-25T12:56:10.883Z,0.70
2018-08-25T12:58:41.059Z,0.87
2018-08-25T13:01:10.090Z,0.57
2018-08-25T13:03:39.100Z,1.70
2018-08-25T13:06:07.783Z,0.90
2018-08-25T13:08:36.546Z,0.80
2018-08-25T13:11:05.306Z,0.77
2018-08-25T13:13:34.026Z,0.73
2018-08-25T13:16:02.767Z,1.00
2018-08-25T13:18:31.639Z,0.80
2018-08-25T13:21:00.271Z,0.90
2018-08-25T13:23:28.943Z,0.60
2018-08-25T13:25:58.797Z,0.80
2018-08-25T13:28:27.538Z,0.90
2018-08-25T13:30:56.657Z,0.80
2018-08-25T13:33:25.552Z,1.27
2018-08-25T13:35:54.314Z,1.07
2018-08-25T13:38:22.894Z,0.93
2018-08-25T13:40:51.441Z,0.90
2018-08-25T13:43:19.965Z,1.27
2018-08-25T13:45:48.537Z,0.97
2018-08-25T13:48:17.058Z,1.07
2018-08-25T13:50:45.873Z,1.60
2018-08-25T13:53:16.707Z,0.90
2018-08-25T13:55:45.384Z,1.50
2018-08-25T13:58:14.439Z,0.60
2018-08-25T14:00:43.284Z,0.60
2018-08-25T14:03:12.811Z,1.00
2018-08-25T14:05:41.405Z,1.13
2018-08-25T14:08:10.041Z,0.90
2018-08-25T14:10:39.069Z,0.80
2018-08-25T14:13:07.878Z,1.07
2018-08-25T14:15:36.723Z,1.00
2018-08-25T14:18:06.136Z,0.97
2018-08-25T14:20:35.032Z,1.30
2018-08-25T14:23:04.337Z,1.20
2018-08-25T14:25:33.202Z,1.60
2018-08-25T14:28:02.052Z,1.07
2018-08-25T14:30:30.975Z,1.10
2018-08-25T14:32:59.710Z,1.30
2018-08-25T14:35:28.596Z,1.30
2018-08-25T14:37:57.564Z,1.07
2018-08-25T14:40:28.472Z,1.17
2018-08-25T14:42:57.799Z,1.07
2018-08-25T14:45:26.681Z,1.10
2018-08-25T14:47:56.286Z,1.13
2018-08-25T14:50:24.825Z,1.13
2018-08-25T14:52:53.414Z,1.20
2018-08-25T14:55:22.209Z,1.70
2018-08-25T14:57:50.805Z,2.20
2018-08-25T15:00:19.405Z,1.27
2018-08-25T15:02:50.440Z,1.50
2018-08-25T15:05:18.943Z,1.37
2018-08-25T15:07:48.366Z,1.60
2018-08-25T15:10:16.928Z,1.50
2018-08-25T15:12:45.428Z,1.53
2018-08-25T15:15:14.001Z,1.30
2018-08-25T15:17:43.027Z,1.10
2018-08-25T15:20:11.729Z,1.23
2018-08-25T15:22:41.355Z,1.13
2018-08-25T15:25:09.937Z,1.33
2018-08-25T15:27:39.084Z,1.03
2018-08-25T15:30:09.864Z,1.43
2018-08-25T15:32:39.617Z,1.27
2018-08-25T15:35:09.588Z,1.07
2018-08-25T15:37:38.191Z,0.97
2018-08-25T15:40:07.600Z,1.40
2018-08-25T15:42:36.369Z,1.27
2018-08-25T15:45:04.890Z,1.57
2018-08-25T15:47:33.501Z,1.30
2018-08-25T15:50:02.648Z,1.10
2018-08-25T15:52:31.984Z,1.00
2018-08-25T15:55:00.730Z,0.93
2018-08-25T15:57:30.148Z,1.53
2018-08-25T15:59:59.966Z,1.00
2018-08-25T16:02:29.011Z,1.17
2018-08-25T16:04:58.790Z,1.20
2018-08-25T16:07:27.853Z,0.80
2018-08-25T16:09:56.777Z,1.10
2018-08-25T16:12:26.341Z,1.30
2018-08-25T16:14:55.104Z,0.90
2018-08-25T16:17:25.017Z,1.37
2018-08-25T16:19:55.022Z,1.20
2018-08-25T16:22:24.344Z,1.17
2018-08-25T16:24:53.381Z,1.37
2018-08-25T16:27:21.910Z,1.20
2018-08-25T16:29:50.855Z,1.30
2018-08-25T16:32:19.936Z,1.43
2018-08-25T16:34:49.599Z,1.43
2018-08-25T16:37:18.824Z,1.00
2018-08-25T16:39:47.708Z,1.03
2018-08-25T16:42:16.541Z,1.07
2018-08-25T16:44:45.768Z,1.17
2018-08-25T16:47:15.181Z,1.20
2018-08-25T16:49:44.524Z,1.13
2018-08-25T16:52:15.105Z,1.30
2018-08-25T16:54:43.921Z,1.63
2018-08-25T16:57:13.398Z,1.33
2018-08-25T16:59:42.316Z,1.60
2018-08-25T17:02:11.140Z,1.30
2018-08-25T17:04:41.133Z,1.57
2018-08-25T17:07:10.609Z,1.00
2018-08-25T17:09:39.767Z,1.00
2018-08-25T17:12:08.753Z,1.17
2018-08-25T17:14:37.792Z,0.93
2018-08-25T17:17:06.626Z,1.10
2018-08-25T17:19:36.226Z,1.37
2018-08-25T17:22:04.922Z,1.00
2018-08-25T17:24:37.293Z,0.97
2018-08-25T17:27:06.719Z,1.50
2018-08-25T17:29:35.317Z,1.10
2018-08-25T17:32:04.507Z,1.20
2018-08-25T17:34:33.119Z,1.10
2018-08-25T17:37:01.712Z,1.33
2018-08-25T17:39:30.360Z,1.07
2018-08-25T17:41:59.245Z,1.07
2018-08-25T17:44:28.485Z,1.07
2018-08-25T17:46:57.135Z,0.80
2018-08-25T17:49:26.025Z,1.30
2018-08-25T17:51:56.085Z,1.00
2018-08-25T17:54:25.473Z,1.00
2018-08-25T17:56:54.453Z,1.60
2018-08-25T17:59:22.997Z,1.03
2018-08-25T18:01:56.774Z,1.23
2018-08-25T18:04:26.591Z,1.03
2018-08-25T18:06:56.252Z,1.07
2018-08-25T18:09:24.786Z,1.20
2018-08-25T18:11:53.314Z,1.50
2018-08-25T18:14:21.886Z,1.50
2018-08-25T18:16:51.122Z,1.40
2018-08-25T18:19:20.703Z,1.40
2018-08-25T18:21:49.679Z,1.53
2018-08-25T18:24:19.652Z,1.67
2018-08-25T18:26:50.015Z,1.10
2018-08-25T18:29:19.547Z,1.53
2018-08-25T18:31:48.305Z,1.50
2018-08-25T18:34:17.334Z,1.60
2018-08-25T18:36:46.060Z,1.50
2018-08-25T18:39:15.094Z,1.63
2018-08-25T18:41:49.474Z,1.37
2018-08-25T18:44:18.727Z,1.70
2018-08-25T18:46:48.815Z,1.53
2018-08-25T18:49:17.923Z,1.57
2018-08-25T18:51:47.390Z,2.00
2018-08-25T18:54:17.547Z,1.80
2018-08-25T18:56:46.717Z,1.37
2018-08-25T18:59:17.533Z,1.43
2018-08-25T19:01:46.346Z,2.00
2018-08-25T19:04:16.721Z,1.33
2018-08-25T19:06:45.941Z,1.87
2018-08-25T19:09:15.621Z,1.60
2018-08-25T19:11:45.466Z,1.50
2018-08-25T19:14:15.328Z,1.60
2018-08-25T19:16:45.366Z,1.33
2018-08-25T19:19:15.868Z,1.73
2018-08-25T19:21:46.820Z,1.30
2018-08-25T19:24:17.681Z,1.30
2018-08-25T19:26:46.896Z,1.30
2018-08-25T19:29:16.955Z,1.40
2018-08-25T19:31:46.416Z,1.50
2018-08-25T19:34:15.738Z,1.27
2018-08-25T19:36:44.913Z,1.30
2018-08-25T19:39:14.227Z,1.40
2018-08-25T19:41:43.560Z,1.20
2018-08-25T19:44:12.965Z,1.43
2018-08-25T19:46:42.918Z,1.50
2018-08-25T19:49:12.621Z,1.30
2018-08-25T19:51:41.551Z,1.37
2018-08-25T19:54:11.317Z,1.10
2018-08-25T19:56:40.639Z,2.13
2018-08-25T19:59:09.316Z,1.70
2018-08-25T20:01:38.390Z,1.77
2018-08-25T20:04:08.096Z,1.57
2018-08-25T20:06:36.739Z,1.70
2018-08-25T20:09:07.769Z,1.50
2018-08-25T20:11:43.168Z,1.47
2018-08-25T20:14:13.378Z,1.70
2018-08-25T20:16:42.331Z,1.60
2018-08-25T20:19:11.377Z,1.70
2018-08-25T20:21:40.535Z,1.43
2018-08-25T20:24:10.235Z,1.50
2018-08-25T20:26:42.200Z,2.07
2018-08-25T20:29:11.557Z,1.63
2018-08-25T20:31:40.892Z,2.03
2018-08-25T20:34:11.121Z,1.70
2018-08-25T20:36:58.214Z,1.70
2018-08-25T20:39:53.275Z,2.00
2018-08-25T20:42:22.230Z,1.93
2018-08-25T20:44:51.101Z,1.77
2018-08-25T20:47:20.500Z,1.80
2018-08-25T20:49:49.664Z,1.80
2018-08-25T20:52:25.057Z,2.07
2018-08-25T20:54:54.715Z,2.10
2018-08-25T20:57:25.778Z,2.37
2018-08-25T20:59:55.549Z,3.00
2018-08-25T21:02:24.299Z,2.63
2018-08-25T21:04:53.061Z,2.50
2018-08-25T21:07:22.055Z,2.50
2018-08-25T21:09:50.829Z,2.07
2018-08-25T21:12:19.739Z,2.13
2018-08-25T21:14:48.729Z,2.77
2018-08-25T21:17:19.381Z,2.33
2018-08-25T21:19:48.403Z,2.10
2018-08-25T21:22:17.206Z,2.20
2018-08-25T21:24:46.016Z,2.10
2018-08-25T21:27:14.920Z,2.10
2018-08-25T21:29:43.645Z,2.17
2018-08-25T21:32:12.478Z,2.10
2018-08-25T21:34:42.206Z,2.17
2018-08-25T21:37:11.000Z,2.50
2018-08-25T21:39:39.922Z,2.33
2018-08-25T21:42:09.352Z,2.27
2018-08-25T21:44:38.423Z,2.73
2018-08-25T21:47:07.939Z,2.43
2018-08-25T21:49:37.011Z,2.53
2018-08-25T21:52:10.031Z,2.10
2018-08-25T21:54:38.786Z,2.90
2018-08-25T21:57:07.636Z,2.87
2018-08-25T21:59:36.489Z,3.03
2018-08-25T22:02:06.222Z,2.70
2018-08-25T22:04:34.989Z,3.00
2018-08-25T22:07:06.711Z,2.50
2018-08-25T22:09:35.762Z,3.33
2018-08-25T22:12:04.393Z,3.23
2018-08-25T22:14:32.932Z,3.27
2018-08-25T22:17:01.503Z,3.20
2018-08-25T22:19:30.072Z,2.90
2018-08-25T22:21:59.158Z,3.53
2018-08-25T22:24:27.741Z,3.40
2018-08-25T22:26:56.745Z,3.60
2018-08-25T22:29:25.554Z,3.27
2018-08-25T22:31:54.134Z,3.40
2018-08-25T22:34:28.003Z,3.50
2018-08-25T22:36:56.721Z,3.30
2018-08-25T22:39:25.978Z,3.23
2018-08-25T22:41:55.559Z,3.40
2018-08-25T22:44:24.523Z,3.40
2018-08-25T22:46:53.758Z,3.30
2018-08-25T22:49:22.410Z,3.33
2018-08-25T22:51:52.772Z,3.30
2018-08-25T22:54:21.631Z,3.60
2018-08-25T22:56:50.289Z,3.63
2018-08-25T22:59:20.164Z,3.43
2018-08-25T23:01:49.189Z,3.87
2018-08-25T23:04:19.473Z,3.80
2018-08-25T23:06:48.999Z,3.70
2018-08-25T23:09:17.647Z,3.30
2018-08-25T23:11:46.314Z,4.20
2018-08-25T23:14:14.893Z,4.03
2018-08-25T23:16:43.471Z,3.67
2018-08-25T23:19:12.316Z,4.10
2018-08-25T23:21:41.607Z,4.10
2018-08-25T23:24:10.977Z,3.90
2018-08-25T23:26:39.688Z,3.50
2018-08-25T23:29:09.509Z,3.40
2018-08-25T23:31:39.022Z,3.40
2018-08-25T23:34:14.835Z,3.10
2018-08-25T23:36:44.524Z,3.10
2018-08-25T23:39:13.239Z,2.93
2018-08-25T23:41:42.378Z,3.07
2018-08-25T23:44:11.138Z,3.47
2018-08-25T23:46:39.873Z,3.33
2018-08-25T23:49:08.653Z,3.27
2018-08-25T23:51:37.396Z,2.97
2018-08-25T23:54:07.674Z,2.93
2018-08-25T23:56:41.421Z,3.80
2018-08-25T23:59:10.246Z,3.17
